createdAt,value
2022-10-21T00:00:50.600Z,14.04
2022-10-21T00:03:17.178Z,14.04
2022-10-21T00:05:43.520Z,14.03
2022-10-21T00:08:09.833Z,14.00
2022-10-21T00:13:07.365Z,13.97
2022-10-21T00:15:33.668Z,13.94
2022-10-21T00:18:01.346Z,13.90
2022-10-21T00:20:27.677Z,13.87
2022-10-21T00:22:54.017Z,13.87
2022-10-21T00:25:20.310Z,13.87
2022-10-21T00:27:46.612Z,13.87
2022-10-21T00:30:13.100Z,13.87
2022-10-21T00:32:39.816Z,13.87
2022-10-21T00:35:07.958Z,13.86
2022-10-21T00:37:34.260Z,13.85
2022-10-21T00:40:00.542Z,13.83
2022-10-21T00:42:30.048Z,13.82
2022-10-21T00:45:12.246Z,13.81
2022-10-21T00:47:41.514Z,13.79
2022-10-21T00:50:18.486Z,13.80
2022-10-21T00:52:44.975Z,13.77
2022-10-21T00:55:11.285Z,13.77
2022-10-21T00:57:38.122Z,13.72
2022-10-21T01:00:05.729Z,13.70
2022-10-21T01:02:32.185Z,13.67
2022-10-21T01:05:00.136Z,13.62
2022-10-21T01:07:27.798Z,13.58
2022-10-21T01:09:54.101Z,13.55
2022-10-21T01:12:24.749Z,13.53
2022-10-21T01:14:53.496Z,13.53
2022-10-21T01:17:52.320Z,13.49
2022-10-21T01:20:26.782Z,13.47
2022-10-21T01:23:10.777Z,13.42
2022-10-21T01:25:48.613Z,13.40
2022-10-21T01:28:19.762Z,13.41
2022-10-21T01:30:50.458Z,13.40
2022-10-21T01:33:38.078Z,13.40
2022-10-21T01:36:09.395Z,13.40
2022-10-21T01:38:42.496Z,13.37
2022-10-21T01:41:11.986Z,13.36
2022-10-21T01:43:41.242Z,13.35
2022-10-21T01:46:13.070Z,13.33
2022-10-21T01:48:43.547Z,13.33
2022-10-21T01:51:10.013Z,13.31
2022-10-21T01:53:39.451Z,13.29
2022-10-21T01:56:07.241Z,13.27
2022-10-21T01:58:35.630Z,13.28
2022-10-21T02:01:03.404Z,13.26
2022-10-21T02:03:32.535Z,13.28
2022-10-21T02:05:59.113Z,13.29
2022-10-21T02:08:25.447Z,13.24
2022-10-21T02:10:54.186Z,13.19
2022-10-21T02:13:22.974Z,13.20
2022-10-21T02:15:50.646Z,13.19
2022-10-21T02:18:18.700Z,13.17
2022-10-21T02:20:49.037Z,13.18
2022-10-21T02:23:17.038Z,13.17
2022-10-21T02:25:44.775Z,13.19
2022-10-21T02:28:11.550Z,13.17
2022-10-21T02:30:41.122Z,13.19
2022-10-21T02:33:10.040Z,13.19
2022-10-21T02:35:39.603Z,13.22
2022-10-21T02:38:11.934Z,13.20
2022-10-21T02:40:41.848Z,13.21
2022-10-21T02:43:10.425Z,13.22
2022-10-21T02:45:38.387Z,13.22
2022-10-21T02:48:04.720Z,13.22
2022-10-21T02:50:31.242Z,13.21
2022-10-21T02:52:57.511Z,13.18
2022-10-21T02:55:25.208Z,13.18
2022-10-21T02:57:51.484Z,13.11
2022-10-21T03:00:17.920Z,13.11
2022-10-21T03:02:44.194Z,13.11
2022-10-21T03:05:10.517Z,13.11
2022-10-21T03:07:37.027Z,13.07
2022-10-21T03:10:03.831Z,13.06
2022-10-21T03:12:31.477Z,13.03
2022-10-21T03:14:57.787Z,13.02
2022-10-21T03:17:25.315Z,13.01
2022-10-21T03:19:51.890Z,13.00
2022-10-21T03:22:18.203Z,12.98
2022-10-21T03:24:44.490Z,12.94
2022-10-21T03:27:10.834Z,12.92
2022-10-21T03:29:38.488Z,12.90
2022-10-21T03:32:04.974Z,12.88
2022-10-21T03:34:31.281Z,12.87
2022-10-21T03:36:57.551Z,12.87
2022-10-21T03:39:23.865Z,12.87
2022-10-21T03:41:50.336Z,12.87
2022-10-21T03:44:16.618Z,12.86
2022-10-21T03:46:44.249Z,12.85
2022-10-21T03:49:18.432Z,12.84
2022-10-21T03:51:47.576Z,12.83
2022-10-21T03:54:13.859Z,12.82
2022-10-21T03:56:40.165Z,12.83
2022-10-21T03:59:06.453Z,12.80
2022-10-21T04:01:32.920Z,12.80
2022-10-21T04:04:00.574Z,12.79
2022-10-21T04:06:26.856Z,12.80
2022-10-21T04:08:53.193Z,12.78
2022-10-21T04:11:19.570Z,12.79
2022-10-21T04:13:45.879Z,12.79
2022-10-21T04:16:14.335Z,12.78
2022-10-21T04:18:40.844Z,12.77
2022-10-21T04:21:08.581Z,12.77
2022-10-21T04:23:34.886Z,12.77
2022-10-21T04:26:01.156Z,12.77
2022-10-21T04:28:27.446Z,12.77
2022-10-21T04:30:53.745Z,12.77
2022-10-21T04:33:20.029Z,12.77
2022-10-21T04:35:46.358Z,12.79
2022-10-21T04:38:13.997Z,12.77
2022-10-21T04:40:40.457Z,12.78
2022-10-21T04:43:06.766Z,12.79
2022-10-21T04:45:33.088Z,12.76
2022-10-21T04:47:59.369Z,12.78
2022-10-21T04:50:25.723Z,12.76
2022-10-21T04:52:52.033Z,12.76
2022-10-21T04:55:19.673Z,12.76
2022-10-21T04:57:45.989Z,12.75
2022-10-21T05:00:12.738Z,12.72
2022-10-21T05:02:39.232Z,12.71
2022-10-21T05:05:06.290Z,12.70
2022-10-21T05:07:32.568Z,12.70
2022-10-21T05:09:58.858Z,12.66
2022-10-21T05:12:26.519Z,12.63
2022-10-21T05:14:52.838Z,12.59
2022-10-21T05:17:19.113Z,12.57
2022-10-21T05:19:45.412Z,12.56
2022-10-21T05:22:11.723Z,12.53
2022-10-21T05:24:38.017Z,12.51
2022-10-21T05:27:04.320Z,12.49
2022-10-21T05:29:31.927Z,12.47
2022-10-21T05:31:58.224Z,12.46
2022-10-21T05:34:24.534Z,12.48
2022-10-21T05:36:50.813Z,12.49
2022-10-21T05:39:17.113Z,12.50
2022-10-21T05:41:45.561Z,12.52
2022-10-21T05:44:14.257Z,12.53
2022-10-21T05:46:41.874Z,12.56
2022-10-21T05:49:08.252Z,12.58
2022-10-21T05:51:34.560Z,12.57
2022-10-21T05:54:00.868Z,12.57
2022-10-21T05:56:27.157Z,12.59
2022-10-21T05:58:53.425Z,12.61
2022-10-21T06:01:19.841Z,12.62
2022-10-21T06:03:47.583Z,12.63
2022-10-21T06:06:13.864Z,12.63
2022-10-21T06:08:40.385Z,12.64
2022-10-21T06:11:08.213Z,12.66
2022-10-21T06:13:35.221Z,12.68
2022-10-21T06:16:01.745Z,12.67
2022-10-21T06:18:28.155Z,12.68
2022-10-21T06:20:55.846Z,12.69
2022-10-21T06:23:22.222Z,12.70
2022-10-21T06:25:54.821Z,12.70
2022-10-21T06:28:21.137Z,12.66
2022-10-21T06:30:47.447Z,12.66
2022-10-21T06:33:13.730Z,12.65
2022-10-21T06:35:40.033Z,12.69
2022-10-21T06:38:07.651Z,12.71
2022-10-21T06:40:33.965Z,12.73
2022-10-21T06:43:00.254Z,12.76
2022-10-21T06:45:26.540Z,12.78
2022-10-21T06:47:52.834Z,12.81
2022-10-21T06:50:19.157Z,12.82
2022-10-21T06:52:45.447Z,12.80
2022-10-21T06:55:13.059Z,12.79
2022-10-21T06:57:39.484Z,12.77
2022-10-21T07:00:07.008Z,12.80
2022-10-21T07:02:33.282Z,12.80
2022-10-21T07:04:59.585Z,12.82
2022-10-21T07:07:26.042Z,12.84
2022-10-21T07:09:52.366Z,12.85
2022-10-21T07:12:19.990Z,12.87
2022-10-21T07:14:46.287Z,12.87
2022-10-21T07:17:12.573Z,12.90
2022-10-21T07:19:38.883Z,12.94
2022-10-21T07:22:05.167Z,12.98
2022-10-21T07:24:31.451Z,13.02
2022-10-21T07:26:57.760Z,13.07
2022-10-21T07:29:25.359Z,13.10
2022-10-21T07:31:51.707Z,13.15
2022-10-21T07:34:17.971Z,13.18
2022-10-21T07:36:45.427Z,13.21
2022-10-21T07:39:13.659Z,13.23
2022-10-21T07:41:40.665Z,13.28
2022-10-21T07:44:07.891Z,13.32
2022-10-21T07:46:37.043Z,13.37
2022-10-21T07:49:03.345Z,13.43
2022-10-21T07:51:31.329Z,13.48
2022-10-21T07:53:58.778Z,13.52
2022-10-21T07:56:26.154Z,13.57
2022-10-21T07:58:52.956Z,13.61
2022-10-21T08:01:19.513Z,13.64
2022-10-21T08:03:47.372Z,13.68
2022-10-21T08:06:15.328Z,13.71
2022-10-21T08:08:41.776Z,13.73
2022-10-21T08:11:08.744Z,13.77
2022-10-21T08:13:35.481Z,13.79
2022-10-21T08:16:02.019Z,13.83
2022-10-21T08:18:29.186Z,13.87
2022-10-21T08:20:56.825Z,13.90
2022-10-21T08:23:23.445Z,13.92
2022-10-21T08:25:50.654Z,13.93
2022-10-21T08:28:17.415Z,13.94
2022-10-21T08:30:44.401Z,13.95
2022-10-21T08:33:10.715Z,13.95
2022-10-21T08:35:36.996Z,13.95
2022-10-21T08:38:04.662Z,13.96
2022-10-21T08:40:34.184Z,13.97
2022-10-21T08:43:06.380Z,13.99
2022-10-21T08:45:37.980Z,14.01
2022-10-21T08:48:06.048Z,14.03
2022-10-21T08:50:36.174Z,14.05
2022-10-21T08:53:05.901Z,14.08
2022-10-21T08:55:35.254Z,14.10
2022-10-21T08:58:02.221Z,14.12
2022-10-21T09:00:30.942Z,14.15
2022-10-21T09:03:14.226Z,14.17
2022-10-21T09:05:56.038Z,14.23
2022-10-21T09:08:26.492Z,14.26
2022-10-21T09:10:59.846Z,14.31
2022-10-21T09:13:34.985Z,14.35
2022-10-21T09:16:06.443Z,14.41
2022-10-21T09:18:41.737Z,14.45
2022-10-21T09:21:13.995Z,14.53
2022-10-21T09:23:43.649Z,14.62
2022-10-21T09:26:18.185Z,14.68
2022-10-21T09:28:45.617Z,14.75
2022-10-21T09:31:15.317Z,14.83
2022-10-21T09:33:43.965Z,14.88
2022-10-21T09:36:13.109Z,14.92
2022-10-21T09:38:42.092Z,14.98
2022-10-21T09:41:13.720Z,15.01
2022-10-21T09:43:41.361Z,15.07
2022-10-21T09:46:11.553Z,15.12
2022-10-21T09:48:54.016Z,15.16
2022-10-21T09:51:28.732Z,15.22
2022-10-21T09:53:57.146Z,15.27
2022-10-21T09:56:25.334Z,15.29
2022-10-21T09:59:07.326Z,15.32
2022-10-21T10:01:35.183Z,15.34
2022-10-21T10:04:09.443Z,15.38
2022-10-21T10:06:36.871Z,15.41
2022-10-21T10:09:16.782Z,15.45
2022-10-21T10:11:53.520Z,15.49
2022-10-21T10:14:32.230Z,15.53
2022-10-21T10:17:18.532Z,15.56
2022-10-21T10:20:06.015Z,15.59
2022-10-21T10:22:34.552Z,15.62
2022-10-21T10:25:07.093Z,15.67
2022-10-21T10:27:33.655Z,15.72
2022-10-21T10:30:00.508Z,15.76
2022-10-21T10:32:31.029Z,15.82
2022-10-21T10:34:58.853Z,15.91
2022-10-21T10:37:27.170Z,15.96
2022-10-21T10:39:56.088Z,16.02
2022-10-21T10:42:24.593Z,16.08
2022-10-21T10:44:52.643Z,16.12
2022-10-21T10:47:20.354Z,16.16
2022-10-21T10:49:46.990Z,16.20
2022-10-21T10:52:17.813Z,16.23
2022-10-21T10:54:44.180Z,16.27
2022-10-21T10:57:13.698Z,16.30
2022-10-21T10:59:42.087Z,16.34
2022-10-21T11:02:15.835Z,16.38
2022-10-21T11:04:47.188Z,16.44
2022-10-21T11:07:17.692Z,16.50
2022-10-21T11:09:44.507Z,16.56
2022-10-21T11:12:18.829Z,16.64
2022-10-21T11:14:48.137Z,16.71
2022-10-21T11:17:16.359Z,16.77
2022-10-21T11:19:45.353Z,16.85
2022-10-21T11:22:13.108Z,16.90
2022-10-21T11:24:48.784Z,16.95
2022-10-21T11:27:20.786Z,17.00
2022-10-21T11:29:51.745Z,17.05
2022-10-21T11:32:23.223Z,17.04
2022-10-21T11:34:53.142Z,17.08
2022-10-21T11:37:24.431Z,17.09
2022-10-21T11:39:55.154Z,17.12
2022-10-21T11:42:26.944Z,17.17
2022-10-21T11:45:00.060Z,17.22
2022-10-21T11:47:32.170Z,17.26
2022-10-21T11:50:03.053Z,17.30
2022-10-21T11:52:34.656Z,17.31
2022-10-21T11:55:12.416Z,17.33
2022-10-21T11:57:46.429Z,17.35
2022-10-21T12:00:15.270Z,17.34
2022-10-21T12:02:43.057Z,17.37
2022-10-21T12:05:15.053Z,17.38
2022-10-21T12:07:57.383Z,17.40
2022-10-21T12:10:28.116Z,17.46
2022-10-21T12:12:58.918Z,17.53
2022-10-21T12:15:27.086Z,17.62
2022-10-21T12:17:54.018Z,17.71
2022-10-21T12:20:23.958Z,17.79
2022-10-21T12:22:53.277Z,17.85
2022-10-21T12:25:24.291Z,17.91
2022-10-21T12:27:54.007Z,17.96
2022-10-21T12:30:27.236Z,18.05
2022-10-21T12:33:05.467Z,18.12
2022-10-21T12:38:20.612Z,18.24
2022-10-21T12:40:47.265Z,18.25
2022-10-21T12:43:17.357Z,18.22
2022-10-21T12:45:46.068Z,18.19
2022-10-21T12:48:28.004Z,18.18
2022-10-21T12:50:57.050Z,18.19
2022-10-21T12:53:27.874Z,18.19
2022-10-21T12:55:55.646Z,18.24
2022-10-21T12:58:33.096Z,18.27
2022-10-21T13:01:01.205Z,18.27
2022-10-21T13:03:45.257Z,18.23
2022-10-21T13:06:12.277Z,18.18
2022-10-21T13:08:40.235Z,18.13
2022-10-21T13:11:19.477Z,18.05
2022-10-21T13:13:46.308Z,17.95
2022-10-21T13:16:34.455Z,17.90
2022-10-21T13:19:01.391Z,17.83
2022-10-21T13:21:36.181Z,17.78
2022-10-21T13:24:20.470Z,17.78
2022-10-21T13:26:48.563Z,17.78
2022-10-21T13:29:41.872Z,17.83
2022-10-21T13:32:20.784Z,17.87
2022-10-21T13:34:55.036Z,17.93
2022-10-21T13:37:24.194Z,17.99
2022-10-21T13:39:51.895Z,18.01
2022-10-21T13:42:20.677Z,17.98
2022-10-21T13:44:51.211Z,17.99
2022-10-21T13:47:19.377Z,17.97
2022-10-21T13:49:49.828Z,17.97
2022-10-21T13:52:16.291Z,17.96
2022-10-21T13:57:08.813Z,17.98
2022-10-21T13:59:35.123Z,18.00
2022-10-21T14:02:01.746Z,18.02
2022-10-21T14:04:30.211Z,18.08
2022-10-21T14:06:57.536Z,18.10
2022-10-21T14:09:25.481Z,18.14
2022-10-21T14:11:52.897Z,18.13
2022-10-21T14:14:22.331Z,18.12
2022-10-21T14:16:49.862Z,18.13
2022-10-21T14:19:18.259Z,18.09
2022-10-21T14:21:47.713Z,18.09
2022-10-21T14:24:26.588Z,18.06
2022-10-21T14:26:53.246Z,18.06
2022-10-21T14:29:20.213Z,18.03
2022-10-21T14:31:46.768Z,18.01
2022-10-21T14:34:21.071Z,17.99
2022-10-21T14:37:00.682Z,18.01
2022-10-21T14:39:26.980Z,18.01
2022-10-21T14:41:53.463Z,17.99
2022-10-21T14:44:21.980Z,17.98
2022-10-21T14:46:49.591Z,18.05
2022-10-21T14:49:20.421Z,18.38
2022-10-21T14:51:46.910Z,18.57
2022-10-21T14:54:24.313Z,18.77
2022-10-21T14:56:50.685Z,19.13
2022-10-21T14:59:20.313Z,19.21
2022-10-21T15:01:46.665Z,19.35
2022-10-21T15:04:27.835Z,19.71
2022-10-21T15:07:00.129Z,19.65
2022-10-21T15:09:27.748Z,19.33
2022-10-21T15:11:54.100Z,19.03
2022-10-21T15:14:29.907Z,18.78
2022-10-21T15:16:57.331Z,18.60
2022-10-21T15:19:25.126Z,18.49
2022-10-21T15:21:53.728Z,18.40
2022-10-21T15:24:23.081Z,18.58
2022-10-21T15:26:52.257Z,18.84
2022-10-21T15:29:23.365Z,18.87
2022-10-21T15:31:49.649Z,18.73
2022-10-21T15:34:16.062Z,18.52
2022-10-21T15:36:42.434Z,18.35
2022-10-21T15:39:09.430Z,18.19
2022-10-21T15:41:36.386Z,18.06
2022-10-21T15:44:14.592Z,17.94
2022-10-21T15:46:40.913Z,17.82
2022-10-21T15:49:13.914Z,17.73
2022-10-21T15:51:40.228Z,17.64
2022-10-21T15:54:06.549Z,17.54
2022-10-21T15:56:32.845Z,17.45
2022-10-21T15:58:59.139Z,17.39
2022-10-21T16:01:27.535Z,17.30
2022-10-21T16:03:53.868Z,17.23
2022-10-21T16:06:21.504Z,17.15
2022-10-21T16:08:48.474Z,17.07
2022-10-21T16:11:21.706Z,17.00
2022-10-21T16:13:56.255Z,16.93
2022-10-21T16:16:23.584Z,16.86
2022-10-21T16:18:52.782Z,16.78
2022-10-21T16:21:19.768Z,16.72
2022-10-21T16:23:46.198Z,16.65
2022-10-21T16:26:15.905Z,16.57
2022-10-21T16:28:42.258Z,16.51
2022-10-21T16:31:09.364Z,16.44
2022-10-21T16:33:35.699Z,16.36
2022-10-21T16:36:09.105Z,16.30
2022-10-21T16:38:35.383Z,16.25
2022-10-21T16:41:01.659Z,16.18
2022-10-21T16:43:27.941Z,16.13
2022-10-21T16:45:54.292Z,16.07
2022-10-21T16:48:20.600Z,16.02
2022-10-21T16:50:46.957Z,15.96
2022-10-21T16:53:15.538Z,15.92
2022-10-21T16:55:41.870Z,15.88
2022-10-21T16:58:08.304Z,15.86
2022-10-21T17:00:35.128Z,15.81
2022-10-21T17:03:01.508Z,15.77
2022-10-21T17:05:27.876Z,15.76
2022-10-21T17:07:54.306Z,15.72
2022-10-21T17:10:21.994Z,15.68
2022-10-21T17:12:48.290Z,15.63
2022-10-21T17:15:15.165Z,15.60
2022-10-21T17:17:41.914Z,15.57
2022-10-21T17:20:09.130Z,15.53
2022-10-21T17:22:35.443Z,15.49
2022-10-21T17:25:01.717Z,15.47
2022-10-21T17:27:29.370Z,15.46
2022-10-21T17:29:55.655Z,15.43
2022-10-21T17:32:22.005Z,15.41
2022-10-21T17:34:48.334Z,15.39
2022-10-21T17:37:14.610Z,15.38
2022-10-21T17:39:40.927Z,15.33
2022-10-21T17:42:07.527Z,15.29
2022-10-21T17:44:35.237Z,15.27
2022-10-21T17:47:01.559Z,15.24
2022-10-21T17:49:27.871Z,15.23
2022-10-21T17:51:54.159Z,15.21
2022-10-21T17:54:24.116Z,15.20
2022-10-21T17:56:54.227Z,15.18
2022-10-21T17:59:20.545Z,15.17
2022-10-21T18:01:48.207Z,15.16
2022-10-21T18:04:14.516Z,15.15
2022-10-21T18:06:40.782Z,15.14
2022-10-21T18:09:07.755Z,15.17
2022-10-21T18:11:34.244Z,15.18
2022-10-21T18:14:00.517Z,15.16
2022-10-21T18:16:26.800Z,15.15
2022-10-21T18:18:57.238Z,15.16
2022-10-21T18:21:26.460Z,15.17
2022-10-21T18:23:53.556Z,15.16
2022-10-21T18:26:21.180Z,15.16
2022-10-21T18:28:48.723Z,15.17
2022-10-21T18:31:15.024Z,15.18
2022-10-21T18:33:41.350Z,15.17
2022-10-21T18:36:09.982Z,15.17
2022-10-21T18:38:36.427Z,15.17
2022-10-21T18:41:18.975Z,15.18
2022-10-21T18:43:46.723Z,15.21
2022-10-21T18:46:13.149Z,15.24
2022-10-21T18:48:39.478Z,15.25
2022-10-21T18:51:05.967Z,15.26
2022-10-21T18:53:34.936Z,15.26
2022-10-21T18:56:02.714Z,15.28
2022-10-21T18:58:29.699Z,15.27
2022-10-21T19:00:56.037Z,15.25
2022-10-21T19:03:22.428Z,15.23
2022-10-21T19:05:48.749Z,15.22
2022-10-21T19:08:15.029Z,15.22
2022-10-21T19:10:42.668Z,15.16
2022-10-21T19:13:08.962Z,15.12
2022-10-21T19:15:35.484Z,15.10
2022-10-21T19:18:02.139Z,15.08
2022-10-21T19:20:29.502Z,15.05
2022-10-21T19:22:55.972Z,15.02
2022-10-21T19:25:22.317Z,15.00
2022-10-21T19:27:49.941Z,14.97
2022-10-21T19:30:16.287Z,14.96
2022-10-21T19:32:42.600Z,14.93
2022-10-21T19:35:09.067Z,14.88
2022-10-21T19:37:35.332Z,14.85
2022-10-21T19:40:01.639Z,14.81
2022-10-21T19:42:27.929Z,14.79
2022-10-21T19:44:55.606Z,14.77
2022-10-21T19:47:21.909Z,14.71
2022-10-21T19:49:48.202Z,14.66
2022-10-21T19:52:14.511Z,14.64
2022-10-21T19:54:40.804Z,14.52
2022-10-21T19:57:07.104Z,14.47
2022-10-21T19:59:33.371Z,14.44
2022-10-21T20:02:00.993Z,14.41
2022-10-21T20:04:27.276Z,14.37
2022-10-21T20:06:53.765Z,14.34
2022-10-21T20:09:20.084Z,14.30
2022-10-21T20:11:46.373Z,14.29
2022-10-21T20:14:12.996Z,14.26
2022-10-21T20:16:40.569Z,14.25
2022-10-21T20:19:08.220Z,14.23
2022-10-21T20:21:35.545Z,14.23
2022-10-21T20:24:02.025Z,14.18
2022-10-21T20:26:28.437Z,14.14
2022-10-21T20:28:55.183Z,14.12
2022-10-21T20:31:21.477Z,14.09
2022-10-21T20:33:48.808Z,14.07
2022-10-21T20:36:17.415Z,14.03
2022-10-21T20:38:44.033Z,14.04
2022-10-21T20:41:11.614Z,14.04
2022-10-21T20:43:38.539Z,14.04
2022-10-21T20:46:06.425Z,14.03
2022-10-21T20:48:33.358Z,14.02
2022-10-21T20:51:02.723Z,14.02
2022-10-21T20:53:31.283Z,14.00
2022-10-21T20:55:57.939Z,14.01
2022-10-21T20:58:24.245Z,13.99
2022-10-21T21:00:50.598Z,13.98
2022-10-21T21:03:16.991Z,13.97
2022-10-21T21:05:43.282Z,13.94
2022-10-21T21:08:09.641Z,13.94
2022-10-21T21:10:37.339Z,13.93
2022-10-21T21:13:03.692Z,13.90
2022-10-21T21:15:29.983Z,13.90
2022-10-21T21:17:56.269Z,13.87
2022-10-21T21:20:22.548Z,13.84
2022-10-21T21:22:48.905Z,13.87
2022-10-21T21:25:15.227Z,13.87
2022-10-21T21:27:42.885Z,13.88
2022-10-21T21:30:09.486Z,13.89
2022-10-21T21:32:35.774Z,13.88
2022-10-21T21:35:05.109Z,13.87
2022-10-21T21:37:32.499Z,13.85
2022-10-21T21:39:58.780Z,13.83
2022-10-21T21:42:25.159Z,13.81
2022-10-21T21:44:52.739Z,13.81
2022-10-21T21:47:19.029Z,13.80
2022-10-21T21:49:45.280Z,13.80
2022-10-21T21:52:11.627Z,13.79
2022-10-21T21:54:37.972Z,13.76
2022-10-21T21:59:50.560Z,13.73
2022-10-21T22:02:18.187Z,13.70
2022-10-21T22:04:44.490Z,13.66
2022-10-21T22:07:10.782Z,13.64
2022-10-21T22:09:37.262Z,13.64
2022-10-21T22:12:03.789Z,13.62
2022-10-21T22:14:30.087Z,13.63
2022-10-21T22:16:56.395Z,13.66
2022-10-21T22:19:24.000Z,13.66
2022-10-21T22:21:50.287Z,13.68
2022-10-21T22:24:16.581Z,13.68
2022-10-21T22:26:42.852Z,13.66
2022-10-21T22:29:09.144Z,13.66
2022-10-21T22:31:35.417Z,13.65
2022-10-21T22:34:02.151Z,13.62
2022-10-21T22:36:30.263Z,13.59
2022-10-21T22:38:56.812Z,13.57
2022-10-21T22:41:23.188Z,13.58
2022-10-21T22:43:49.451Z,13.57
2022-10-21T22:49:02.410Z,13.51
2022-10-21T22:51:30.048Z,13.46
2022-10-21T22:53:56.635Z,13.41
2022-10-21T22:56:23.930Z,13.39
2022-10-21T22:58:50.249Z,13.33
2022-10-21T23:01:16.568Z,13.32
2022-10-21T23:03:42.904Z,13.31
2022-10-21T23:06:09.199Z,13.32
2022-10-21T23:08:36.903Z,13.32
2022-10-21T23:11:03.408Z,13.32
2022-10-21T23:13:29.696Z,13.33
2022-10-21T23:15:55.986Z,13.29
2022-10-21T23:18:22.289Z,13.29
2022-10-21T23:20:48.571Z,13.28
2022-10-21T23:23:14.879Z,13.28
2022-10-21T23:25:42.531Z,13.29
2022-10-21T23:28:08.845Z,13.27
2022-10-21T23:30:35.238Z,13.26
2022-10-21T23:33:01.526Z,13.24
2022-10-21T23:35:27.796Z,13.21
2022-10-21T23:37:54.099Z,13.16
2022-10-21T23:40:20.407Z,13.11
2022-10-21T23:42:48.067Z,13.07
2022-10-21T23:45:14.368Z,13.06
2022-10-21T23:47:40.796Z,13.06
2022-10-21T23:50:08.622Z,13.07
2022-10-21T23:52:35.460Z,13.08
2022-10-21T23:55:01.790Z,13.09
2022-10-21T23:57:28.235Z,13.10
2022-10-21T23:59:55.905Z,13.11
